Time;durP1;ratioP1;P1;durP2;ratioP2;P2;SDS_P1;SDS_P2;PMS_P1;PMS_P2;Temp;Humidity;BMP_temperature;BMP_pressure;BME280_temperature;BME280_humidity;BME280_pressure;Samples;Min_cycle;Max_cycle;Signal;HPM_P1;HPM_P2
2023/05/12 00:01:54;;;;;;;1999.90;999.90;;;12.30;99.90;;;;;;5030340;28;20524;-71
2023/05/12 00:04:21;;;;;;;1999.90;999.90;;;12.40;99.90;;;;;;5029641;28;20442;-71
2023/05/12 00:06:49;;;;;;;1999.90;999.90;;;12.50;99.90;;;;;;5030973;28;20484;-71
2023/05/12 00:09:16;;;;;;;1999.90;999.90;;;12.30;99.90;;;;;;5031079;28;20438;-70
2023/05/12 00:11:42;;;;;;;1999.90;999.90;;;12.10;99.90;;;;;;5031539;28;20477;-71
2023/05/12 00:14:09;;;;;;;1999.90;999.90;;;12.20;99.90;;;;;;5027926;28;20469;-71
2023/05/12 00:16:36;;;;;;;1999.90;999.90;;;12.10;99.90;;;;;;5030130;28;20470;-71
2023/05/12 00:19:02;;;;;;;1999.90;999.90;;;12.20;99.90;;;;;;5028794;28;20442;-70
2023/05/12 00:21:29;;;;;;;1999.90;999.90;;;12.10;99.90;;;;;;5030951;28;20489;-71
2023/05/12 00:23:57;;;;;;;1999.90;999.90;;;12.00;99.90;;;;;;5029818;28;20446;-69
2023/05/12 00:26:24;;;;;;;1999.90;999.90;;;12.00;99.90;;;;;;5028552;28;20786;-71
2023/05/12 00:28:51;;;;;;;1999.90;999.90;;;12.10;99.90;;;;;;5030826;28;20567;-71
2023/05/12 00:31:17;;;;;;;1999.90;999.90;;;12.30;99.90;;;;;;5025368;28;20432;-73
2023/05/12 00:33:44;;;;;;;1999.90;999.90;;;12.40;99.90;;;;;;5027987;28;20431;-69
2023/05/12 00:36:11;;;;;;;1999.90;999.90;;;12.20;99.90;;;;;;5030807;28;20431;-70
2023/05/12 00:38:37;;;;;;;1999.90;999.90;;;12.10;99.90;;;;;;5029070;28;20438;-71
2023/05/12 00:41:05;;;;;;;1999.90;999.90;;;12.10;99.90;;;;;;5023781;28;20859;-71
2023/05/12 00:43:32;;;;;;;1999.90;999.90;;;12.10;99.90;;;;;;5030894;28;20442;-70
2023/05/12 00:46:00;;;;;;;1999.90;999.90;;;12.40;99.90;;;;;;5030572;28;20817;-70
2023/05/12 00:48:27;;;;;;;1999.90;999.90;;;12.50;99.90;;;;;;5028468;28;20439;-70
2023/05/12 00:50:54;;;;;;;1999.90;999.90;;;12.30;99.90;;;;;;5029324;28;20430;-70
2023/05/12 00:53:21;;;;;;;1999.90;999.90;;;12.30;99.90;;;;;;5029792;28;20481;-71
2023/05/12 00:55:48;;;;;;;1999.90;999.90;;;12.20;99.90;;;;;;5029065;28;20857;-70
2023/05/12 00:58:16;;;;;;;1999.90;999.90;;;12.20;99.90;;;;;;5027605;28;20435;-70
2023/05/12 01:00:42;;;;;;;1999.90;999.90;;;12.30;99.90;;;;;;5030108;28;20526;-69
2023/05/12 01:03:09;;;;;;;1999.90;999.90;;;12.40;99.90;;;;;;5029963;28;20435;-69
2023/05/12 01:05:46;;;;;;;1999.90;999.90;;;12.40;99.90;;;;;;5029584;28;20433;-70
2023/05/12 01:08:13;;;;;;;1999.90;999.90;;;12.30;99.90;;;;;;5029223;28;20488;-70
2023/05/12 01:10:44;;;;;;;1999.90;999.90;;;12.30;99.90;;;;;;5029002;28;20852;-71
2023/05/12 01:13:11;;;;;;;1999.90;999.90;;;12.40;99.90;;;;;;5030129;28;20430;-70
2023/05/12 01:15:43;;;;;;;1999.90;999.90;;;12.50;99.90;;;;;;5029730;28;20524;-69
2023/05/12 01:18:12;;;;;;;1999.90;999.90;;;12.80;99.90;;;;;;5028747;28;20912;-70
2023/05/12 01:20:42;;;;;;;1999.90;999.90;;;12.70;99.90;;;;;;5030055;28;20872;-71
2023/05/12 01:23:09;;;;;;;1999.90;999.90;;;12.60;99.90;;;;;;5028766;28;20477;-70
2023/05/12 01:25:39;;;;;;;1999.90;999.90;;;12.60;99.90;;;;;;5028864;28;20438;-71
2023/05/12 01:28:07;;;;;;;1999.90;999.90;;;12.60;99.90;;;;;;5027788;28;20917;-69
2023/05/12 01:30:36;;;;;;;1999.90;999.90;;;12.80;99.90;;;;;;5028437;28;20832;-69
2023/05/12 01:33:03;;;;;;;1999.90;999.90;;;12.70;99.90;;;;;;5029702;28;20439;-71
2023/05/12 01:35:30;;;;;;;1999.90;999.90;;;12.60;99.90;;;;;;5028686;28;20427;-72
2023/05/12 01:37:56;;;;;;;1999.90;999.90;;;12.40;99.90;;;;;;5028767;28;20974;-69
2023/05/12 01:40:23;;;;;;;1999.90;999.90;;;12.50;99.90;;;;;;5029743;28;20524;-71
2023/05/12 01:42:50;;;;;;;1999.90;999.90;;;12.80;99.90;;;;;;5029447;28;20913;-70
2023/05/12 01:45:18;;;;;;;1999.90;999.90;;;12.80;99.90;;;;;;5029441;28;20507;-70
2023/05/12 01:47:45;;;;;;;1999.90;999.90;;;12.70;99.90;;;;;;5027509;28;20486;-69
2023/05/12 01:50:11;;;;;;;1999.90;999.90;;;12.50;99.90;;;;;;5028991;28;20538;-70
2023/05/12 01:52:38;;;;;;;1999.90;999.90;;;12.50;99.90;;;;;;5029402;28;20427;-70
2023/05/12 01:55:05;;;;;;;1999.90;999.90;;;12.60;99.90;;;;;;5024846;28;20438;-70
2023/05/12 01:57:32;;;;;;;1999.90;999.90;;;12.50;99.90;;;;;;5028606;28;20526;-71
2023/05/12 01:59:59;;;;;;;1999.90;999.90;;;12.20;99.90;;;;;;5026728;28;20438;-70
2023/05/12 02:02:28;;;;;;;1999.90;999.90;;;12.20;99.90;;;;;;5029298;28;20431;-70
2023/05/12 02:04:55;;;;;;;1999.90;999.90;;;12.30;99.90;;;;;;5029179;28;20471;-70
2023/05/12 02:07:22;;;;;;;1999.90;999.90;;;12.10;99.90;;;;;;5028426;28;20427;-71
2023/05/12 02:09:48;;;;;;;1999.90;999.90;;;12.20;99.90;;;;;;5025914;28;20430;-70
2023/05/12 02:12:15;;;;;;;1999.90;999.90;;;12.20;99.90;;;;;;5028932;28;20427;-69
2023/05/12 02:14:42;;;;;;;1999.90;999.90;;;12.20;99.90;;;;;;5028502;28;20492;-69
2023/05/12 02:17:08;;;;;;;1999.90;999.90;;;12.20;99.90;;;;;;5029025;28;20435;-68
2023/05/12 02:19:36;;;;;;;1999.90;999.90;;;12.30;99.90;;;;;;5027071;28;20435;-71
2023/05/12 02:22:03;;;;;;;1999.90;999.90;;;12.10;99.90;;;;;;5028754;28;20492;-71
2023/05/12 02:24:30;;;;;;;1999.90;999.90;;;12.20;99.90;;;;;;5028342;28;20426;-71
2023/05/12 02:26:56;;;;;;;1999.90;999.90;;;12.20;99.90;;;;;;5028926;28;20434;-71
2023/05/12 02:29:23;;;;;;;1999.90;999.90;;;12.50;99.90;;;;;;5028284;28;20508;-73
2023/05/12 02:31:50;;;;;;;1999.90;999.90;;;12.30;99.90;;;;;;5027090;28;20431;-71
2023/05/12 02:34:16;;;;;;;1999.90;999.90;;;12.10;99.90;;;;;;5028348;28;20524;-71
2023/05/12 02:36:44;;;;;;;1999.90;999.90;;;12.00;99.90;;;;;;5028400;28;20431;-71
2023/05/12 02:39:12;;;;;;;1999.90;999.90;;;11.90;99.90;;;;;;5028264;28;20431;-71
2023/05/12 02:41:39;;;;;;;1999.90;999.90;;;12.10;99.90;;;;;;5027723;28;20442;-71
2023/05/12 02:44:06;;;;;;;1999.90;999.90;;;12.30;99.90;;;;;;5027389;28;20443;-71
2023/05/12 02:46:33;;;;;;;1999.90;999.90;;;12.30;99.90;;;;;;5028425;28;20881;-70
2023/05/12 02:48:59;;;;;;;1999.90;999.90;;;12.10;99.90;;;;;;5028334;28;20431;-73
2023/05/12 02:51:26;;;;;;;1999.90;999.90;;;12.10;99.90;;;;;;5027697;28;20435;-71
2023/05/12 02:53:54;;;;;;;1999.90;999.90;;;12.00;99.90;;;;;;5026988;28;20782;-71
2023/05/12 02:56:21;;;;;;;1999.90;999.90;;;12.10;99.90;;;;;;5026712;28;20924;-71
2023/05/12 02:58:47;;;;;;;1999.90;999.90;;;12.10;99.90;;;;;;5028305;28;20472;-71
2023/05/12 03:01:14;;;;;;;1999.90;999.90;;;12.20;99.90;;;;;;5028349;28;20438;-71
2023/05/12 03:03:41;;;;;;;1999.90;999.90;;;12.30;99.90;;;;;;5026830;28;20427;-70
2023/05/12 03:06:08;;;;;;;1999.90;999.90;;;12.30;99.90;;;;;;5026265;28;20435;-71
2023/05/12 03:08:35;;;;;;;1999.90;999.90;;;12.10;99.90;;;;;;5027456;28;20435;-71
2023/05/12 03:11:03;;;;;;;1999.90;999.90;;;12.10;99.90;;;;;;5028221;28;20465;-68
2023/05/12 03:13:29;;;;;;;1999.90;999.90;;;12.10;99.90;;;;;;5027340;28;20847;-68
2023/05/12 03:15:59;;;;;;;1999.90;999.90;;;12.20;99.90;;;;;;5026904;28;20434;-68
2023/05/12 03:18:26;;;;;;;1999.90;999.90;;;12.10;99.90;;;;;;5027237;28;20443;-67
2023/05/12 03:20:53;;;;;;;1999.90;999.90;;;12.10;99.90;;;;;;5027904;28;20445;-68
2023/05/12 03:23:20;;;;;;;1999.90;999.90;;;12.10;99.90;;;;;;5025876;28;20488;-68
2023/05/12 03:25:46;;;;;;;1999.90;999.90;;;12.00;99.90;;;;;;5025706;28;20457;-69
2023/05/12 03:28:14;;;;;;;1999.90;999.90;;;12.10;99.90;;;;;;5028169;28;20446;-69
2023/05/12 03:30:41;;;;;;;1999.90;999.90;;;11.60;99.90;;;;;;5026541;28;20913;-70
2023/05/12 03:33:08;;;;;;;1999.90;999.90;;;11.50;99.90;;;;;;5025298;28;20465;-72
2023/05/12 03:35:34;;;;;;;1999.90;999.90;;;11.30;99.90;;;;;;5027999;28;20493;-71
2023/05/12 03:38:01;;;;;;;1999.90;999.90;;;11.40;99.90;;;;;;5027880;28;20435;-70
2023/05/12 03:40:28;;;;;;;1999.90;999.90;;;11.60;99.90;;;;;;5028008;28;20921;-70
2023/05/12 03:42:54;;;;;;;1999.90;999.90;;;11.70;99.90;;;;;;5026117;28;20484;-71
2023/05/12 03:45:22;;;;;;;1999.90;999.90;;;11.60;99.90;;;;;;5027810;28;20468;-71
2023/05/12 03:47:49;;;;;;;1999.90;999.90;;;11.70;99.90;;;;;;5027815;28;20489;-72
2023/05/12 03:50:16;;;;;;;1999.90;999.90;;;11.60;99.90;;;;;;5030786;28;20925;-70
2023/05/12 03:52:42;;;;;;;1999.90;999.90;;;11.70;99.90;;;;;;5030619;28;20866;-71
2023/05/12 03:55:10;;;;;;;1999.90;999.90;;;11.70;99.90;;;;;;5030684;28;20434;-71
2023/05/12 03:57:37;;;;;;;1999.90;999.90;;;11.50;99.90;;;;;;5031497;28;20917;-71
2023/05/12 04:00:04;;;;;;;1999.90;999.90;;;11.40;99.90;;;;;;5030445;28;21173;-70
2023/05/12 04:02:32;;;;;;;1999.90;999.90;;;11.50;99.90;;;;;;5031000;28;20431;-70
2023/05/12 04:04:59;;;;;;;1999.90;999.90;;;11.60;99.90;;;;;;5030544;28;20435;-71
2023/05/12 04:07:26;;;;;;;1999.90;999.90;;;11.70;99.90;;;;;;5029669;28;21146;-70
2023/05/12 04:09:52;;;;;;;1999.90;999.90;;;11.70;99.90;;;;;;5029653;28;20434;-71
2023/05/12 04:12:19;;;;;;;1999.90;999.90;;;11.60;99.90;;;;;;5031148;28;20427;-71
2023/05/12 04:14:45;;;;;;;1999.90;999.90;;;11.60;99.90;;;;;;5030555;28;20991;-71
2023/05/12 04:17:12;;;;;;;1999.90;999.90;;;11.60;99.90;;;;;;5031014;28;20484;-71
2023/05/12 04:19:40;;;;;;;1999.90;999.90;;;11.50;99.90;;;;;;5025376;28;20509;-72
2023/05/12 04:22:07;;;;;;;1999.90;999.90;;;11.70;99.90;;;;;;5023151;28;20962;-70
2023/05/12 04:24:33;;;;;;;1999.90;999.90;;;11.60;99.90;;;;;;5030664;28;20446;-71
2023/05/12 04:27:00;;;;;;;1999.90;999.90;;;11.80;99.90;;;;;;5030728;28;20469;-71
2023/05/12 04:29:27;;;;;;;1999.90;999.90;;;11.80;99.90;;;;;;5029550;28;20435;-69
2023/05/12 04:31:54;;;;;;;1999.90;999.90;;;11.70;99.90;;;;;;5024066;28;20439;-70
2023/05/12 04:34:21;;;;;;;1999.90;999.90;;;11.80;99.90;;;;;;5028822;28;21014;-70
2023/05/12 04:36:49;;;;;;;1999.90;999.90;;;11.90;99.90;;;;;;5030712;28;20485;-72
2023/05/12 04:39:15;;;;;;;1999.90;999.90;;;11.80;99.90;;;;;;5029903;28;20435;-69
2023/05/12 04:41:42;;;;;;;1999.90;999.90;;;11.80;99.90;;;;;;5029539;28;20920;-71
2023/05/12 04:44:09;;;;;;;1999.90;999.90;;;11.80;99.90;;;;;;5030296;28;20561;-71
2023/05/12 04:46:35;;;;;;;1999.90;999.90;;;11.80;99.90;;;;;;5022615;28;20439;-70
2023/05/12 04:49:02;;;;;;;1999.90;999.90;;;11.70;99.90;;;;;;5029865;28;20435;-71
2023/05/12 04:51:29;;;;;;;1999.90;999.90;;;11.90;99.90;;;;;;5030572;28;20434;-71
2023/05/12 04:53:56;;;;;;;1999.90;999.90;;;11.80;99.90;;;;;;5028970;28;20933;-71
2023/05/12 04:56:23;;;;;;;1999.90;999.90;;;11.80;99.90;;;;;;5030206;28;20488;-72
2023/05/12 04:58:50;;;;;;;1999.90;999.90;;;12.00;99.90;;;;;;5028811;28;20453;-71
2023/05/12 05:01:17;;;;;;;1999.90;999.90;;;12.10;99.90;;;;;;5029332;28;21102;-71
2023/05/12 05:03:44;;;;;;;1999.90;999.90;;;12.30;99.90;;;;;;5030331;28;20462;-71
2023/05/12 05:06:10;;;;;;;1999.90;999.90;;;12.50;99.90;;;;;;5029105;28;20434;-72
2023/05/12 05:08:37;;;;;;;1999.90;999.90;;;12.60;99.90;;;;;;5025095;28;20431;-70
2023/05/12 05:11:05;;;;;;;1999.90;999.90;;;12.60;99.90;;;;;;5029982;28;21008;-73
2023/05/12 05:13:32;;;;;;;1999.90;999.90;;;12.60;99.90;;;;;;5030011;28;20489;-71
2023/05/12 05:15:58;;;;;;;1999.90;999.90;;;12.80;99.90;;;;;;5027255;28;20929;-71
2023/05/12 05:18:25;;;;;;;1999.90;999.90;;;12.90;99.90;;;;;;5022574;28;20438;-71
2023/05/12 05:20:53;;;;;;;1999.90;999.90;;;12.80;99.90;;;;;;5030536;28;20438;-74
2023/05/12 05:23:20;;;;;;;1999.90;999.90;;;13.00;99.90;;;;;;5027161;28;20509;-74
2023/05/12 05:25:46;;;;;;;1999.90;999.90;;;12.90;99.90;;;;;;5027769;28;20983;-72
2023/05/12 05:28:14;;;;;;;1999.90;999.90;;;12.90;99.90;;;;;;5029838;28;20431;-72
2023/05/12 05:30:41;;;;;;;1999.90;999.90;;;12.90;99.90;;;;;;5028336;28;20480;-73
2023/05/12 05:33:07;;;;;;;1999.90;999.90;;;12.90;99.90;;;;;;5028532;28;20438;-73
2023/05/12 05:35:34;;;;;;;1999.90;999.90;;;13.00;99.90;;;;;;5027903;28;20783;-71
2023/05/12 05:38:01;;;;;;;1999.90;999.90;;;13.00;99.90;;;;;;5027861;28;20913;-71
2023/05/12 05:40:28;;;;;;;1999.90;999.90;;;13.10;99.90;;;;;;5026254;28;20443;-71
2023/05/12 05:42:55;;;;;;;1999.90;999.90;;;13.10;99.90;;;;;;5025576;28;20453;-71
2023/05/12 05:45:23;;;;;;;1999.90;999.90;;;13.20;99.90;;;;;;5028735;28;20438;-72
2023/05/12 05:47:51;;;;;;;1999.90;999.90;;;13.30;99.90;;;;;;5029092;28;20435;-72
2023/05/12 05:50:18;;;;;;;1999.90;999.90;;;13.30;99.90;;;;;;5028399;28;20855;-71
2023/05/12 05:52:45;;;;;;;1999.90;999.90;;;13.40;99.90;;;;;;5028310;28;20929;-71
2023/05/12 05:55:12;;;;;;;1999.90;999.90;;;13.50;99.90;;;;;;5027925;28;20832;-69
2023/05/12 05:57:38;;;;;;;1999.90;999.90;;;13.60;99.90;;;;;;5026223;28;20438;-69
2023/05/12 06:00:06;;;;;;;1999.90;999.90;;;13.70;99.90;;;;;;5026072;28;20430;-71
2023/05/12 06:02:34;;;;;;;1999.90;999.90;;;13.70;99.90;;;;;;5024217;28;20574;-69
2023/05/12 06:05:01;;;;;;;1999.90;999.90;;;13.80;99.90;;;;;;5028602;28;20461;-72
2023/05/12 06:07:28;;;;;;;1999.90;999.90;;;13.90;99.90;;;;;;5027342;28;20917;-72
2023/05/12 06:09:55;;;;;;;1999.90;999.90;;;13.90;99.90;;;;;;5028194;28;20439;-72
2023/05/12 06:12:21;;;;;;;1999.90;999.90;;;13.90;99.90;;;;;;5028239;28;20438;-73
2023/05/12 06:14:48;;;;;;;1999.90;999.90;;;14.00;99.90;;;;;;5028481;28;20437;-71
2023/05/12 06:17:15;;;;;;;1999.90;999.90;;;14.00;99.90;;;;;;5029235;28;20488;-71
2023/05/12 06:19:46;;;;;;;1999.90;999.90;;;14.00;99.90;;;;;;5028135;28;20435;-71
2023/05/12 06:22:13;;;;;;;1999.90;999.90;;;14.10;99.90;;;;;;5028630;28;20516;-71
2023/05/12 06:24:39;;;;;;;1999.90;999.90;;;14.20;99.90;;;;;;5027713;28;20840;-70
2023/05/12 06:27:06;;;;;;;1999.90;999.90;;;14.30;99.90;;;;;;5027667;28;20524;-70
2023/05/12 06:29:33;;;;;;;1999.90;999.90;;;14.40;99.90;;;;;;5028055;28;20427;-70
2023/05/12 06:32:00;;;;;;;1999.90;999.90;;;14.60;99.90;;;;;;5027922;28;20493;-70
2023/05/12 06:34:26;;;;;;;1999.90;999.90;;;14.70;99.90;;;;;;5028354;28;20508;-70
2023/05/12 06:36:54;;;;;;;1999.90;999.90;;;14.80;99.90;;;;;;5025083;28;20510;-70
2023/05/12 06:39:21;;;;;;;1999.90;999.90;;;14.80;99.90;;;;;;5027606;28;20431;-70
2023/05/12 06:41:47;;;;;;;1999.90;999.90;;;14.80;99.90;;;;;;5028323;28;20435;-69
2023/05/12 06:44:14;;;;;;;1999.90;999.90;;;15.00;99.90;;;;;;5028211;28;20431;-69
2023/05/12 06:46:41;;;;;;;1999.90;999.90;;;15.20;99.90;;;;;;5024847;28;21036;-71
2023/05/12 06:49:08;;;;;;;1999.90;999.90;;;15.40;99.90;;;;;;5026580;28;20940;-70
2023/05/12 06:51:35;;;;;;;1999.90;999.90;;;15.50;99.90;;;;;;5020503;28;20518;-70
2023/05/12 06:54:03;;;;;;;1999.90;999.90;;;15.50;99.90;;;;;;5026715;28;20868;-70
2023/05/12 06:56:30;;;;;;;1999.90;999.90;;;15.40;99.90;;;;;;5024631;28;20430;-69
2023/05/12 06:58:59;;;;;;;1999.90;999.90;;;15.50;99.90;;;;;;5024993;28;20442;-69
2023/05/12 07:01:26;;;;;;;1999.90;999.90;;;15.70;99.90;;;;;;5027539;28;20978;-69
2023/05/12 07:03:53;;;;;;;1999.90;999.90;;;16.00;99.90;;;;;;5027006;28;20484;-70
2023/05/12 07:06:20;;;;;;;1999.90;999.90;;;16.30;99.90;;;;;;5026026;28;20940;-69
2023/05/12 07:08:46;;;;;;;1999.90;999.90;;;16.60;99.90;;;;;;5027252;28;20435;-69
2023/05/12 07:11:18;;;;;;;1999.90;999.90;;;16.80;99.90;;;;;;5021887;28;20458;-70
2023/05/12 07:13:45;;;;;;;1999.90;999.90;;;17.00;99.90;;;;;;5025520;28;20429;-68
2023/05/12 07:16:12;;;;;;;1999.90;999.90;;;17.20;99.90;;;;;;5028039;28;20442;-69
2023/05/12 07:18:39;;;;;;;1999.90;999.90;;;17.40;99.90;;;;;;5026335;28;20489;-69
2023/05/12 07:21:05;;;;;;;1999.90;999.90;;;17.30;99.90;;;;;;5028134;28;20434;-69
2023/05/12 07:23:33;;;;;;;1999.90;999.90;;;17.50;99.90;;;;;;5027483;28;20423;-69
2023/05/12 07:26:01;;;;;;;1999.90;999.90;;;17.40;99.90;;;;;;5031603;28;20431;-70
2023/05/12 07:28:31;;;;;;;1999.90;999.90;;;17.50;99.90;;;;;;5030341;28;20430;-69
2023/05/12 07:30:57;;;;;;;1999.90;999.90;;;17.60;99.90;;;;;;5023148;28;20435;-67
2023/05/12 07:33:24;;;;;;;1999.90;999.90;;;17.90;99.90;;;;;;5030129;28;20434;-69
2023/05/12 07:35:51;;;;;;;1999.90;999.90;;;18.20;99.90;;;;;;5020373;28;20437;-69
2023/05/12 07:38:17;;;;;;;1999.90;999.90;;;18.00;99.90;;;;;;5018723;28;20430;-69
2023/05/12 07:40:44;;;;;;;1999.90;999.90;;;18.10;99.90;;;;;;5030463;28;20944;-69
2023/05/12 07:43:11;;;;;;;1999.90;999.90;;;17.90;99.90;;;;;;5025725;28;20477;-70
2023/05/12 07:45:40;;;;;;;1999.90;999.90;;;17.90;99.90;;;;;;5030370;28;20488;-70
2023/05/12 07:48:06;;;;;;;1999.90;999.90;;;17.80;99.90;;;;;;5032859;28;20462;-69
2023/05/12 07:50:33;;;;;;;1999.90;999.90;;;17.80;99.90;;;;;;5031447;28;20441;-69
2023/05/12 07:53:00;;;;;;;1999.90;999.90;;;18.20;99.90;;;;;;5032095;28;20492;-70
2023/05/12 07:55:26;;;;;;;1999.90;999.90;;;18.20;99.90;;;;;;5032857;28;20423;-70
2023/05/12 07:57:53;;;;;;;1999.90;999.90;;;18.40;99.90;;;;;;5032860;28;20419;-70
2023/05/12 08:00:20;;;;;;;1999.90;999.90;;;18.60;99.90;;;;;;5028769;28;20435;-70
2023/05/12 08:02:48;;;;;;;1999.90;999.90;;;19.00;99.90;;;;;;5030003;28;20430;-70
2023/05/12 08:05:15;;;;;;;1999.90;999.90;;;19.00;99.90;;;;;;5031920;28;20497;-70
2023/05/12 08:07:42;;;;;;;1999.90;999.90;;;19.10;99.90;;;;;;5031396;28;20414;-68
2023/05/12 08:10:10;;;;;;;1999.90;999.90;;;18.90;99.90;;;;;;5030542;28;20824;-70
2023/05/12 08:12:37;;;;;;;1999.90;999.90;;;18.70;99.90;;;;;;5031173;28;20917;-70
2023/05/12 08:15:04;;;;;;;1999.90;999.90;;;18.80;99.90;;;;;;5030097;28;20439;-67
2023/05/12 08:17:30;;;;;;;1999.90;999.90;;;19.10;99.90;;;;;;5029845;28;20435;-71
2023/05/12 08:19:58;;;;;;;1999.90;999.90;;;18.80;99.90;;;;;;5030760;28;20852;-71
2023/05/12 08:22:25;;;;;;;1999.90;999.90;;;18.80;99.90;;;;;;5029913;28;20435;-69
2023/05/12 08:24:52;;;;;;;1999.90;999.90;;;18.90;99.90;;;;;;5031513;28;20430;-71
2023/05/12 08:27:19;;;;;;;1999.90;999.90;;;18.80;99.90;;;;;;5023579;28;20437;-71
2023/05/12 08:29:46;;;;;;;1999.90;999.90;;;18.60;99.90;;;;;;5032598;28;20503;-68
2023/05/12 08:32:13;;;;;;;1999.90;999.90;;;18.60;99.90;;;;;;5032615;28;20415;-71
2023/05/12 08:34:40;;;;;;;1999.90;999.90;;;18.70;99.90;;;;;;5032266;28;20446;-71
2023/05/12 08:37:08;;;;;;;1999.90;999.90;;;19.00;99.90;;;;;;5032445;28;20473;-68
2023/05/12 08:39:35;;;;;;;1999.90;999.90;;;19.40;99.90;;;;;;5030177;28;20545;-71
2023/05/12 08:42:26;;;;;;;1999.90;999.90;;;19.40;99.90;;;;;;5032282;28;20411;-70
2023/05/12 08:44:54;;;;;;;1999.90;999.90;;;19.10;99.90;;;;;;5032126;28;20427;-71
2023/05/12 08:47:23;;;;;;;1999.90;999.90;;;19.20;99.90;;;;;;5032125;28;20415;-71
2023/05/12 08:49:58;;;;;;;1999.90;999.90;;;19.30;99.90;;;;;;5031947;28;21001;-70
2023/05/12 08:52:27;;;;;;;1999.90;999.90;;;19.40;99.90;;;;;;5030907;28;20778;-70
2023/05/12 08:54:53;;;;;;;1999.90;999.90;;;19.40;99.90;;;;;;5031972;28;20485;-71
2023/05/12 08:57:21;;;;;;;1999.90;999.90;;;19.60;99.90;;;;;;5032095;28;20502;-72
2023/05/12 08:59:48;;;;;;;1999.90;999.90;;;19.60;99.90;;;;;;5031955;28;20960;-71
2023/05/12 09:02:17;;;;;;;1999.90;999.90;;;19.40;99.90;;;;;;5031854;28;20423;-71
2023/05/12 09:04:43;;;;;;;1999.90;999.90;;;19.40;99.90;;;;;;5030825;28;20997;-71
2023/05/12 09:07:10;;;;;;;1999.90;999.90;;;19.70;99.90;;;;;;5031957;28;20472;-71
2023/05/12 09:09:41;;;;;;;1999.90;999.90;;;19.60;99.90;;;;;;5031911;28;20468;-71
2023/05/12 09:12:13;;;;;;;1999.90;999.90;;;19.70;99.90;;;;;;5031888;28;20476;-72
2023/05/12 09:14:41;;;;;;;1999.90;999.90;;;19.90;99.90;;;;;;5030238;28;20431;-71
2023/05/12 09:17:11;;;;;;;1999.90;999.90;;;19.90;99.90;;;;;;5031434;28;20423;-68
2023/05/12 09:19:37;;;;;;;1999.90;999.90;;;20.10;99.90;;;;;;5030526;28;20517;-72
2023/05/12 09:22:04;;;;;;;1999.90;999.90;;;20.10;99.90;;;;;;5031366;28;20413;-71
2023/05/12 09:24:35;;;;;;;1999.90;999.90;;;20.00;99.90;;;;;;5031387;28;20462;-70
2023/05/12 09:27:03;;;;;;;1999.90;999.90;;;19.80;99.90;;;;;;5031482;28;20411;-70
2023/05/12 09:29:31;;;;;;;1999.90;999.90;;;20.10;99.90;;;;;;5029177;28;20442;-70
2023/05/12 09:32:00;;;;;;;1999.90;999.90;;;20.40;99.90;;;;;;5031307;28;20441;-70
2023/05/12 09:34:28;;;;;;;1999.90;999.90;;;20.40;99.90;;;;;;5031308;28;20415;-71
2023/05/12 09:36:56;;;;;;;1999.90;999.90;;;20.40;99.90;;;;;;5031402;28;20423;-70
2023/05/12 09:39:23;;;;;;;1999.90;999.90;;;20.30;99.90;;;;;;5031409;28;20498;-68
2023/05/12 09:41:50;;;;;;;1999.90;999.90;;;20.70;99.90;;;;;;5029972;28;20551;-69
2023/05/12 09:44:19;;;;;;;1999.90;999.90;;;20.80;99.90;;;;;;5030527;28;20465;-69
2023/05/12 09:46:47;;;;;;;1999.90;999.90;;;21.00;99.90;;;;;;5030446;28;20915;-70
2023/05/12 09:49:18;;;;;;;1999.90;999.90;;;21.10;99.90;;;;;;5030992;28;20477;-70
2023/05/12 09:51:45;;;;;;;1999.90;999.90;;;21.20;99.90;;;;;;5031096;28;20415;-68
2023/05/12 09:54:12;;;;;;;1999.90;999.90;;;21.30;99.90;;;;;;5029533;28;20426;-68
2023/05/12 09:56:40;;;;;;;1999.90;999.90;;;21.30;99.90;;;;;;5030018;28;20462;-69
2023/05/12 09:59:09;;;;;;;1999.90;999.90;;;21.20;99.90;;;;;;5027001;28;20438;-68
2023/05/12 10:01:37;;;;;;;1999.90;999.90;;;21.00;99.90;;;;;;5027279;28;20438;-68
2023/05/12 10:04:07;;;;;;;1999.90;999.90;;;21.00;99.90;;;;;;5024877;28;20949;-68
2023/05/12 10:06:40;;;;;;;1999.90;999.90;;;20.90;99.90;;;;;;5022948;28;20557;-68
2023/05/12 10:09:14;;;;;;;1999.90;999.90;;;21.10;99.90;;;;;;5022274;28;20536;-69
2023/05/12 10:11:41;;;;;;;1999.90;999.90;;;21.20;99.90;;;;;;5013385;28;20432;-68
2023/05/12 10:14:08;;;;;;;1999.90;999.90;;;21.30;99.90;;;;;;5024332;28;20485;-70
2023/05/12 10:16:38;;;;;;;1999.90;999.90;;;21.10;99.40;;;;;;5022318;28;20439;-70
2023/05/12 10:19:06;;;;;;;1999.90;999.90;;;21.10;99.10;;;;;;5024860;28;20489;-70
2023/05/12 10:21:33;;;;;;;1999.90;999.90;;;21.00;98.20;;;;;;5028383;28;20496;-68
2023/05/12 10:24:00;;;;;;;1999.90;999.90;;;21.10;99.90;;;;;;5026920;28;20434;-68
2023/05/12 10:26:27;;;;;;;1999.90;999.90;;;21.40;99.90;;;;;;5019941;28;20435;-70
2023/05/12 10:28:54;;;;;;;1999.90;999.90;;;21.20;98.30;;;;;;5023207;28;20832;-68
2023/05/12 10:31:21;;;;;;;1999.90;999.90;;;21.50;99.30;;;;;;5027423;28;20489;-68
2023/05/12 10:33:57;;;;;;;1999.90;999.90;;;21.30;99.10;;;;;;5026631;28;20484;-69
2023/05/12 10:36:24;;;;;;;1999.90;999.90;;;21.20;99.10;;;;;;5028529;28;20536;-69
2023/05/12 10:38:51;;;;;;;1999.90;999.90;;;21.40;99.50;;;;;;5027336;28;20437;-68
2023/05/12 10:41:29;;;;;;;1999.90;999.90;;;21.70;99.90;;;;;;5023988;28;20442;-69
2023/05/12 10:43:56;;;;;;;1999.90;999.90;;;21.80;97.20;;;;;;5024428;28;20442;-67
2023/05/12 10:46:25;;;;;;;1999.90;999.90;;;21.90;97.70;;;;;;5027842;28;20441;-68
2023/05/12 10:48:54;;;;;;;1999.90;999.90;;;21.70;97.90;;;;;;5029101;28;20447;-69
2023/05/12 10:51:23;;;;;;;1999.90;999.90;;;21.80;97.80;;;;;;5029976;28;20418;-68
2023/05/12 10:53:56;;;;;;;1999.90;999.90;;;22.00;97.50;;;;;;5030006;28;20419;-68
2023/05/12 10:56:25;;;;;;;1999.90;999.90;;;22.10;95.90;;;;;;5030416;28;20413;-69
2023/05/12 10:59:13;;;;;;;1999.90;999.90;;;22.10;96.50;;;;;;5031875;28;20418;-67
2023/05/12 11:01:40;;;;;;;1999.90;999.90;;;22.40;95.90;;;;;;5030364;28;20522;-69
2023/05/12 11:04:14;;;;;;;1999.90;999.90;;;22.70;95.70;;;;;;5032346;28;20461;-66
2023/05/12 11:06:43;;;;;;;1999.90;999.90;;;22.80;94.40;;;;;;5030334;28;20489;-69
2023/05/12 11:09:11;;;;;;;1999.90;999.90;;;22.60;93.10;;;;;;5030501;28;20493;-69
2023/05/12 11:11:38;;;;;;;1999.90;999.90;;;22.80;94.00;;;;;;5031440;28;20504;-69
2023/05/12 11:14:04;;;;;;;1999.90;999.90;;;22.70;93.10;;;;;;5019269;28;20448;-68
2023/05/12 11:16:31;;;;;;;1999.90;999.90;;;22.70;90.60;;;;;;5030333;28;20442;-69
2023/05/12 11:19:02;;;;;;;1999.90;999.90;;;22.70;91.40;;;;;;5031332;28;20435;-70
2023/05/12 11:21:30;;;;;;;1999.90;999.90;;;22.80;89.90;;;;;;5051355;22;20439;-72
2023/05/12 11:23:59;;;;;;;1999.90;999.90;;;23.10;89.90;;;;;;5035173;28;20434;-73
2023/05/12 11:26:26;;;;;;;1999.90;999.90;;;23.00;86.50;;;;;;5034359;28;20477;-73
2023/05/12 11:28:53;;;;;;;1999.90;999.90;;;22.60;84.30;;;;;;5040240;28;20432;-74
2023/05/12 11:31:20;;;;;;;1999.90;999.90;;;22.70;86.60;;;;;;5034832;28;20482;-71
2023/05/12 11:33:47;;;;;;;1999.90;999.90;;;22.80;86.50;;;;;;5038128;28;20496;-69
2023/05/12 11:36:14;;;;;;;1999.90;999.90;;;22.80;82.10;;;;;;5041007;28;21252;-71
2023/05/12 11:38:49;;;;;;;1999.90;999.90;;;22.80;87.30;;;;;;5037164;28;20428;-72
2023/05/12 11:41:23;;;;;;;1999.90;999.90;;;22.70;82.30;;;;;;5040551;28;20433;-71
2023/05/12 11:43:50;;;;;;;1999.90;999.90;;;22.70;79.90;;;;;;5041825;28;20517;-71
2023/05/12 11:46:24;;;;;;;1999.90;999.90;;;22.70;80.10;;;;;;5036078;28;20830;-72
2023/05/12 11:48:55;;;;;;;1999.90;999.90;;;22.80;85.10;;;;;;5033487;28;21038;-72
2023/05/12 11:51:22;;;;;;;1999.90;999.90;;;22.90;87.00;;;;;;5040877;28;20455;-68
2023/05/12 11:53:52;;;;;;;1999.90;999.90;;;22.90;82.70;;;;;;5035107;28;21400;-71
2023/05/12 11:56:20;;;;;;;1999.90;999.90;;;22.80;81.90;;;;;;5032556;28;20457;-71
2023/05/12 11:58:56;;;;;;;1999.90;999.90;;;22.80;81.00;;;;;;5036052;28;20513;-72
2023/05/12 12:01:22;;;;;;;1999.90;999.90;;;22.50;80.00;;;;;;5046350;28;20429;-71